Terminal Aerodrome Forecast
Issued by NWS

Home | Current Version | Previous Version | Text Only | Print | Product List | Glossary On
Versions: 1 2 3 4 5 6 7 8 9 10 11 12 13 14 15 16 17 18 19 20 21 22 23 24 25 26 27 28 29 30 31 32 33 34 35 36 37 38 39 40 41 42 43 44
000
FTUS45 KBOU 262334
TAFBJC
TAF
KBJC 262334Z 2700/2724 20005KT P6SM FEW080 BKN140
     FM270030 13011G18KT P6SM FEW080 BKN140
     FM270200 16010KT P6SM FEW090 BKN140
     FM270500 24005KT P6SM FEW090 SCT140
     FM271300 30005KT P6SM FEW140 SCT200
     FM271900 VRB05KT P6SM FEW090 SCT140
     FM272100 26011G18KT P6SM SCT090 BKN140=

USA.gov is the U.S. government's official web portal to all federal, state and local government web resources and services.